sensor_id;sensor_type;location;lat;lon;timestamp;P1;durP1;ratioP1;P2;durP2;ratioP2
43150;SDS011;28755;51.478;5.702;2023-04-06T00:01:24;19.60;;;12.82;;
43150;SDS011;28755;51.478;5.702;2023-04-06T00:03:50;18.88;;;11.82;;
43150;SDS011;28755;51.478;5.702;2023-04-06T00:06:16;16.98;;;11.23;;
43150;SDS011;28755;51.478;5.702;2023-04-06T00:08:41;22.85;;;11.93;;
43150;SDS011;28755;51.478;5.702;2023-04-06T00:11:07;21.20;;;12.43;;
43150;SDS011;28755;51.478;5.702;2023-04-06T00:13:33;19.10;;;11.07;;
43150;SDS011;28755;51.478;5.702;2023-04-06T00:15:59;19.35;;;12.15;;
43150;SDS011;28755;51.478;5.702;2023-04-06T00:18:25;20.75;;;12.60;;
43150;SDS011;28755;51.478;5.702;2023-04-06T00:20:51;20.00;;;11.98;;
43150;SDS011;28755;51.478;5.702;2023-04-06T00:23:17;17.48;;;11.77;;
43150;SDS011;28755;51.478;5.702;2023-04-06T00:25:42;18.55;;;11.40;;
43150;SDS011;28755;51.478;5.702;2023-04-06T00:28:08;18.08;;;11.80;;
43150;SDS011;28755;51.478;5.702;2023-04-06T00:30:33;20.42;;;11.60;;
43150;SDS011;28755;51.478;5.702;2023-04-06T00:32:59;20.92;;;11.77;;
43150;SDS011;28755;51.478;5.702;2023-04-06T00:35:25;19.85;;;11.20;;
43150;SDS011;28755;51.478;5.702;2023-04-06T00:37:51;21.73;;;11.73;;
43150;SDS011;28755;51.478;5.702;2023-04-06T00:40:17;20.88;;;11.80;;
43150;SDS011;28755;51.478;5.702;2023-04-06T00:42:42;21.27;;;11.10;;
43150;SDS011;28755;51.478;5.702;2023-04-06T00:45:08;19.77;;;11.77;;
43150;SDS011;28755;51.478;5.702;2023-04-06T00:47:35;18.13;;;11.70;;
43150;SDS011;28755;51.478;5.702;2023-04-06T00:50:00;23.45;;;12.27;;
43150;SDS011;28755;51.478;5.702;2023-04-06T00:52:26;20.55;;;11.55;;
43150;SDS011;28755;51.478;5.702;2023-04-06T00:54:51;18.63;;;11.70;;
43150;SDS011;28755;51.478;5.702;2023-04-06T00:57:17;21.77;;;11.75;;
43150;SDS011;28755;51.478;5.702;2023-04-06T00:59:43;17.05;;;11.23;;
43150;SDS011;28755;51.478;5.702;2023-04-06T01:02:09;19.92;;;11.40;;
43150;SDS011;28755;51.478;5.702;2023-04-06T01:04:35;20.63;;;11.25;;
43150;SDS011;28755;51.478;5.702;2023-04-06T01:07:00;18.05;;;10.93;;
43150;SDS011;28755;51.478;5.702;2023-04-06T01:09:29;15.32;;;10.60;;
43150;SDS011;28755;51.478;5.702;2023-04-06T01:11:58;20.40;;;11.70;;
43150;SDS011;28755;51.478;5.702;2023-04-06T01:14:24;18.42;;;11.18;;
43150;SDS011;28755;51.478;5.702;2023-04-06T01:16:50;17.63;;;11.65;;
43150;SDS011;28755;51.478;5.702;2023-04-06T01:19:16;19.15;;;11.63;;
43150;SDS011;28755;51.478;5.702;2023-04-06T01:21:42;19.98;;;11.13;;
43150;SDS011;28755;51.478;5.702;2023-04-06T01:24:08;18.80;;;11.85;;
43150;SDS011;28755;51.478;5.702;2023-04-06T01:26:35;18.98;;;11.95;;
43150;SDS011;28755;51.478;5.702;2023-04-06T01:29:02;20.45;;;11.93;;
43150;SDS011;28755;51.478;5.702;2023-04-06T01:31:28;18.52;;;11.60;;
43150;SDS011;28755;51.478;5.702;2023-04-06T01:33:54;16.92;;;11.00;;
43150;SDS011;28755;51.478;5.702;2023-04-06T01:36:20;17.85;;;11.57;;
43150;SDS011;28755;51.478;5.702;2023-04-06T01:38:46;20.30;;;11.82;;
43150;SDS011;28755;51.478;5.702;2023-04-06T01:41:12;20.20;;;11.93;;
43150;SDS011;28755;51.478;5.702;2023-04-06T01:43:37;16.85;;;11.07;;
43150;SDS011;28755;51.478;5.702;2023-04-06T01:46:03;22.88;;;11.82;;
43150;SDS011;28755;51.478;5.702;2023-04-06T01:48:28;25.27;;;12.18;;
43150;SDS011;28755;51.478;5.702;2023-04-06T01:50:55;16.23;;;11.40;;
43150;SDS011;28755;51.478;5.702;2023-04-06T01:53:20;19.48;;;12.00;;
43150;SDS011;28755;51.478;5.702;2023-04-06T01:55:46;22.77;;;13.95;;
43150;SDS011;28755;51.478;5.702;2023-04-06T01:58:12;21.95;;;12.68;;
43150;SDS011;28755;51.478;5.702;2023-04-06T02:00:38;25.20;;;13.02;;
43150;SDS011;28755;51.478;5.702;2023-04-06T02:03:04;20.52;;;12.13;;
43150;SDS011;28755;51.478;5.702;2023-04-06T02:05:31;19.33;;;12.30;;
43150;SDS011;28755;51.478;5.702;2023-04-06T02:08:02;21.27;;;12.77;;
43150;SDS011;28755;51.478;5.702;2023-04-06T02:10:31;21.10;;;13.35;;
43150;SDS011;28755;51.478;5.702;2023-04-06T02:12:57;19.33;;;12.60;;
43150;SDS011;28755;51.478;5.702;2023-04-06T02:15:23;22.13;;;12.82;;
43150;SDS011;28755;51.478;5.702;2023-04-06T02:17:49;20.58;;;13.30;;
43150;SDS011;28755;51.478;5.702;2023-04-06T02:20:15;21.92;;;12.63;;
43150;SDS011;28755;51.478;5.702;2023-04-06T02:22:41;23.30;;;12.88;;
43150;SDS011;28755;51.478;5.702;2023-04-06T02:25:07;22.25;;;12.98;;
43150;SDS011;28755;51.478;5.702;2023-04-06T02:27:32;21.33;;;13.70;;
43150;SDS011;28755;51.478;5.702;2023-04-06T02:29:58;22.45;;;12.95;;
43150;SDS011;28755;51.478;5.702;2023-04-06T02:32:24;22.35;;;14.13;;
43150;SDS011;28755;51.478;5.702;2023-04-06T02:34:49;23.88;;;13.65;;
43150;SDS011;28755;51.478;5.702;2023-04-06T02:37:15;26.88;;;14.77;;
43150;SDS011;28755;51.478;5.702;2023-04-06T02:39:41;26.63;;;14.10;;
43150;SDS011;28755;51.478;5.702;2023-04-06T02:42:06;25.02;;;14.38;;
43150;SDS011;28755;51.478;5.702;2023-04-06T02:44:33;23.70;;;14.18;;
43150;SDS011;28755;51.478;5.702;2023-04-06T02:46:59;22.58;;;14.50;;
43150;SDS011;28755;51.478;5.702;2023-04-06T02:49:24;26.77;;;14.40;;
43150;SDS011;28755;51.478;5.702;2023-04-06T02:51:50;26.10;;;13.07;;
43150;SDS011;28755;51.478;5.702;2023-04-06T02:54:16;29.40;;;15.48;;
43150;SDS011;28755;51.478;5.702;2023-04-06T02:56:41;26.65;;;15.45;;
43150;SDS011;28755;51.478;5.702;2023-04-06T02:59:07;24.63;;;14.13;;
43150;SDS011;28755;51.478;5.702;2023-04-06T03:01:32;27.25;;;14.68;;
43150;SDS011;28755;51.478;5.702;2023-04-06T03:03:58;28.52;;;15.02;;
43150;SDS011;28755;51.478;5.702;2023-04-06T03:06:23;23.52;;;14.20;;
43150;SDS011;28755;51.478;5.702;2023-04-06T03:08:49;27.52;;;14.43;;
43150;SDS011;28755;51.478;5.702;2023-04-06T03:11:15;28.90;;;14.25;;
43150;SDS011;28755;51.478;5.702;2023-04-06T03:13:40;25.55;;;14.65;;
43150;SDS011;28755;51.478;5.702;2023-04-06T03:16:06;23.63;;;14.65;;
43150;SDS011;28755;51.478;5.702;2023-04-06T03:18:31;25.92;;;14.70;;
43150;SDS011;28755;51.478;5.702;2023-04-06T03:20:57;28.90;;;14.75;;
43150;SDS011;28755;51.478;5.702;2023-04-06T03:23:25;30.40;;;15.57;;
43150;SDS011;28755;51.478;5.702;2023-04-06T03:25:50;24.25;;;15.13;;
43150;SDS011;28755;51.478;5.702;2023-04-06T03:28:16;26.65;;;15.27;;
43150;SDS011;28755;51.478;5.702;2023-04-06T03:30:42;29.60;;;16.20;;
43150;SDS011;28755;51.478;5.702;2023-04-06T03:33:07;26.15;;;15.57;;
43150;SDS011;28755;51.478;5.702;2023-04-06T03:35:33;33.17;;;15.43;;
43150;SDS011;28755;51.478;5.702;2023-04-06T03:37:59;26.60;;;15.10;;
43150;SDS011;28755;51.478;5.702;2023-04-06T03:40:24;26.33;;;14.80;;
43150;SDS011;28755;51.478;5.702;2023-04-06T03:42:50;26.27;;;14.82;;
43150;SDS011;28755;51.478;5.702;2023-04-06T03:45:16;27.45;;;16.10;;
43150;SDS011;28755;51.478;5.702;2023-04-06T03:47:41;29.85;;;15.65;;
43150;SDS011;28755;51.478;5.702;2023-04-06T03:50:07;26.00;;;15.98;;
43150;SDS011;28755;51.478;5.702;2023-04-06T03:52:34;25.63;;;15.50;;
43150;SDS011;28755;51.478;5.702;2023-04-06T03:55:00;28.95;;;15.55;;
43150;SDS011;28755;51.478;5.702;2023-04-06T03:57:25;26.55;;;15.32;;
43150;SDS011;28755;51.478;5.702;2023-04-06T03:59:51;33.90;;;16.33;;
43150;SDS011;28755;51.478;5.702;2023-04-06T04:02:17;27.20;;;14.93;;
43150;SDS011;28755;51.478;5.702;2023-04-06T04:04:42;27.30;;;15.70;;
43150;SDS011;28755;51.478;5.702;2023-04-06T04:07:08;24.10;;;15.85;;
43150;SDS011;28755;51.478;5.702;2023-04-06T04:09:33;32.15;;;17.30;;
43150;SDS011;28755;51.478;5.702;2023-04-06T04:11:59;29.95;;;15.52;;
43150;SDS011;28755;51.478;5.702;2023-04-06T04:14:25;26.38;;;15.63;;
43150;SDS011;28755;51.478;5.702;2023-04-06T04:16:50;26.73;;;16.33;;
43150;SDS011;28755;51.478;5.702;2023-04-06T04:19:16;27.00;;;16.02;;
43150;SDS011;28755;51.478;5.702;2023-04-06T04:21:45;28.08;;;16.33;;
43150;SDS011;28755;51.478;5.702;2023-04-06T04:24:11;26.83;;;15.77;;
43150;SDS011;28755;51.478;5.702;2023-04-06T04:26:37;27.00;;;16.25;;
43150;SDS011;28755;51.478;5.702;2023-04-06T04:29:03;28.98;;;16.40;;
43150;SDS011;28755;51.478;5.702;2023-04-06T04:31:29;27.88;;;15.95;;
43150;SDS011;28755;51.478;5.702;2023-04-06T04:33:54;29.80;;;16.95;;
43150;SDS011;28755;51.478;5.702;2023-04-06T04:36:20;27.10;;;15.63;;
43150;SDS011;28755;51.478;5.702;2023-04-06T04:38:46;29.58;;;16.30;;
43150;SDS011;28755;51.478;5.702;2023-04-06T04:41:11;29.27;;;17.40;;
43150;SDS011;28755;51.478;5.702;2023-04-06T04:43:37;42.50;;;16.45;;
43150;SDS011;28755;51.478;5.702;2023-04-06T04:46:03;27.90;;;16.80;;
43150;SDS011;28755;51.478;5.702;2023-04-06T04:48:29;29.02;;;15.98;;
43150;SDS011;28755;51.478;5.702;2023-04-06T04:50:55;26.42;;;16.33;;
43150;SDS011;28755;51.478;5.702;2023-04-06T04:53:21;29.92;;;17.52;;
43150;SDS011;28755;51.478;5.702;2023-04-06T04:55:47;30.85;;;17.63;;
43150;SDS011;28755;51.478;5.702;2023-04-06T04:58:12;31.35;;;16.85;;
43150;SDS011;28755;51.478;5.702;2023-04-06T05:00:44;26.35;;;17.17;;
43150;SDS011;28755;51.478;5.702;2023-04-06T05:03:14;34.20;;;17.77;;
43150;SDS011;28755;51.478;5.702;2023-04-06T05:05:45;25.85;;;16.63;;
43150;SDS011;28755;51.478;5.702;2023-04-06T05:08:11;26.63;;;17.70;;
43150;SDS011;28755;51.478;5.702;2023-04-06T05:10:37;24.88;;;16.70;;
43150;SDS011;28755;51.478;5.702;2023-04-06T05:13:02;31.95;;;17.20;;
43150;SDS011;28755;51.478;5.702;2023-04-06T05:15:28;28.95;;;17.40;;
43150;SDS011;28755;51.478;5.702;2023-04-06T05:17:53;29.25;;;17.85;;
43150;SDS011;28755;51.478;5.702;2023-04-06T05:20:19;28.05;;;17.80;;
43150;SDS011;28755;51.478;5.702;2023-04-06T05:22:45;34.83;;;17.63;;
43150;SDS011;28755;51.478;5.702;2023-04-06T05:25:10;25.85;;;17.25;;
43150;SDS011;28755;51.478;5.702;2023-04-06T05:27:36;32.72;;;18.25;;
43150;SDS011;28755;51.478;5.702;2023-04-06T05:30:02;29.42;;;17.77;;
43150;SDS011;28755;51.478;5.702;2023-04-06T05:32:28;27.92;;;17.83;;
43150;SDS011;28755;51.478;5.702;2023-04-06T05:34:53;30.70;;;17.35;;
43150;SDS011;28755;51.478;5.702;2023-04-06T05:37:19;30.00;;;17.45;;
43150;SDS011;28755;51.478;5.702;2023-04-06T05:39:45;28.45;;;17.55;;
43150;SDS011;28755;51.478;5.702;2023-04-06T05:42:10;28.33;;;17.52;;
43150;SDS011;28755;51.478;5.702;2023-04-06T05:44:36;34.67;;;18.40;;
43150;SDS011;28755;51.478;5.702;2023-04-06T05:47:02;31.30;;;17.95;;
43150;SDS011;28755;51.478;5.702;2023-04-06T05:49:28;32.95;;;18.55;;
43150;SDS011;28755;51.478;5.702;2023-04-06T05:51:54;34.22;;;18.00;;
43150;SDS011;28755;51.478;5.702;2023-04-06T05:54:20;32.10;;;18.40;;
43150;SDS011;28755;51.478;5.702;2023-04-06T05:56:45;28.42;;;17.00;;
43150;SDS011;28755;51.478;5.702;2023-04-06T05:59:11;30.27;;;17.08;;
43150;SDS011;28755;51.478;5.702;2023-04-06T06:01:36;27.20;;;16.85;;
43150;SDS011;28755;51.478;5.702;2023-04-06T06:04:02;27.02;;;16.92;;
43150;SDS011;28755;51.478;5.702;2023-04-06T06:06:28;27.88;;;17.13;;
43150;SDS011;28755;51.478;5.702;2023-04-06T06:08:55;27.55;;;17.20;;
43150;SDS011;28755;51.478;5.702;2023-04-06T06:11:24;26.63;;;17.33;;
43150;SDS011;28755;51.478;5.702;2023-04-06T06:13:50;32.08;;;17.58;;
43150;SDS011;28755;51.478;5.702;2023-04-06T06:16:16;30.50;;;17.60;;
43150;SDS011;28755;51.478;5.702;2023-04-06T06:18:43;28.67;;;17.45;;
43150;SDS011;28755;51.478;5.702;2023-04-06T06:21:08;27.08;;;16.80;;
43150;SDS011;28755;51.478;5.702;2023-04-06T06:23:34;26.65;;;16.25;;
43150;SDS011;28755;51.478;5.702;2023-04-06T06:25:59;29.20;;;17.33;;
43150;SDS011;28755;51.478;5.702;2023-04-06T06:28:26;27.42;;;17.20;;
43150;SDS011;28755;51.478;5.702;2023-04-06T06:30:52;31.27;;;17.08;;
43150;SDS011;28755;51.478;5.702;2023-04-06T06:33:17;32.25;;;17.05;;
43150;SDS011;28755;51.478;5.702;2023-04-06T06:35:43;29.63;;;16.80;;
43150;SDS011;28755;51.478;5.702;2023-04-06T06:38:08;30.80;;;15.77;;
43150;SDS011;28755;51.478;5.702;2023-04-06T06:40:34;27.35;;;15.07;;
43150;SDS011;28755;51.478;5.702;2023-04-06T06:43:00;28.30;;;15.00;;
43150;SDS011;28755;51.478;5.702;2023-04-06T06:45:25;23.73;;;15.30;;
43150;SDS011;28755;51.478;5.702;2023-04-06T06:47:51;24.60;;;15.05;;
43150;SDS011;28755;51.478;5.702;2023-04-06T06:50:16;25.42;;;15.15;;
43150;SDS011;28755;51.478;5.702;2023-04-06T06:52:42;27.58;;;16.17;;
43150;SDS011;28755;51.478;5.702;2023-04-06T06:55:09;28.65;;;15.00;;
43150;SDS011;28755;51.478;5.702;2023-04-06T06:57:35;23.88;;;15.85;;
43150;SDS011;28755;51.478;5.702;2023-04-06T07:00:01;24.75;;;14.93;;
43150;SDS011;28755;51.478;5.702;2023-04-06T07:02:27;27.60;;;15.23;;
43150;SDS011;28755;51.478;5.702;2023-04-06T07:04:52;24.25;;;15.05;;
43150;SDS011;28755;51.478;5.702;2023-04-06T07:07:18;27.58;;;15.38;;
43150;SDS011;28755;51.478;5.702;2023-04-06T07:09:43;24.70;;;14.73;;
43150;SDS011;28755;51.478;5.702;2023-04-06T07:12:09;29.05;;;15.93;;
43150;SDS011;28755;51.478;5.702;2023-04-06T07:14:35;32.78;;;16.02;;
43150;SDS011;28755;51.478;5.702;2023-04-06T07:17:01;26.85;;;15.38;;
43150;SDS011;28755;51.478;5.702;2023-04-06T07:19:27;22.83;;;14.00;;
43150;SDS011;28755;51.478;5.702;2023-04-06T07:21:52;30.85;;;15.30;;
43150;SDS011;28755;51.478;5.702;2023-04-06T07:24:18;24.38;;;15.20;;
43150;SDS011;28755;51.478;5.702;2023-04-06T07:26:44;29.38;;;15.73;;
43150;SDS011;28755;51.478;5.702;2023-04-06T07:29:09;33.15;;;15.23;;
43150;SDS011;28755;51.478;5.702;2023-04-06T07:31:35;28.20;;;14.25;;
43150;SDS011;28755;51.478;5.702;2023-04-06T07:34:00;30.70;;;14.82;;
43150;SDS011;28755;51.478;5.702;2023-04-06T07:36:26;23.45;;;15.05;;
43150;SDS011;28755;51.478;5.702;2023-04-06T07:38:52;27.85;;;14.57;;
43150;SDS011;28755;51.478;5.702;2023-04-06T07:41:17;25.95;;;14.70;;
43150;SDS011;28755;51.478;5.702;2023-04-06T07:43:43;27.92;;;14.52;;
43150;SDS011;28755;51.478;5.702;2023-04-06T07:46:08;29.25;;;14.40;;
43150;SDS011;28755;51.478;5.702;2023-04-06T07:48:34;24.10;;;14.95;;
43150;SDS011;28755;51.478;5.702;2023-04-06T07:51:00;23.20;;;14.63;;
43150;SDS011;28755;51.478;5.702;2023-04-06T07:53:29;29.55;;;16.00;;
43150;SDS011;28755;51.478;5.702;2023-04-06T07:55:55;26.33;;;15.32;;
43150;SDS011;28755;51.478;5.702;2023-04-06T07:58:23;26.27;;;15.38;;
43150;SDS011;28755;51.478;5.702;2023-04-06T08:00:48;34.40;;;15.77;;
43150;SDS011;28755;51.478;5.702;2023-04-06T08:03:14;24.50;;;15.77;;
43150;SDS011;28755;51.478;5.702;2023-04-06T08:05:41;26.25;;;15.57;;
43150;SDS011;28755;51.478;5.702;2023-04-06T08:08:07;24.55;;;15.40;;
43150;SDS011;28755;51.478;5.702;2023-04-06T08:10:33;26.58;;;14.77;;
43150;SDS011;28755;51.478;5.702;2023-04-06T08:13:02;33.05;;;16.30;;
43150;SDS011;28755;51.478;5.702;2023-04-06T08:15:27;25.88;;;14.25;;
43150;SDS011;28755;51.478;5.702;2023-04-06T08:17:53;32.85;;;15.73;;
43150;SDS011;28755;51.478;5.702;2023-04-06T08:20:22;27.33;;;14.88;;
43150;SDS011;28755;51.478;5.702;2023-04-06T08:22:47;27.52;;;14.98;;
43150;SDS011;28755;51.478;5.702;2023-04-06T08:25:13;25.90;;;15.75;;
43150;SDS011;28755;51.478;5.702;2023-04-06T08:27:38;23.90;;;14.27;;
43150;SDS011;28755;51.478;5.702;2023-04-06T08:30:04;24.35;;;14.18;;
43150;SDS011;28755;51.478;5.702;2023-04-06T08:32:30;24.48;;;15.23;;
43150;SDS011;28755;51.478;5.702;2023-04-06T08:34:56;26.13;;;14.85;;
43150;SDS011;28755;51.478;5.702;2023-04-06T08:37:22;23.95;;;13.90;;
43150;SDS011;28755;51.478;5.702;2023-04-06T08:39:48;29.60;;;13.50;;
43150;SDS011;28755;51.478;5.702;2023-04-06T08:42:16;26.50;;;15.05;;
43150;SDS011;28755;51.478;5.702;2023-04-06T08:44:45;27.50;;;15.02;;
43150;SDS011;28755;51.478;5.702;2023-04-06T08:47:13;22.92;;;14.40;;
43150;SDS011;28755;51.478;5.702;2023-04-06T08:49:39;25.52;;;14.93;;
43150;SDS011;28755;51.478;5.702;2023-04-06T08:52:06;27.92;;;14.55;;
43150;SDS011;28755;51.478;5.702;2023-04-06T08:54:33;26.90;;;14.63;;
43150;SDS011;28755;51.478;5.702;2023-04-06T08:56:59;22.23;;;13.45;;
43150;SDS011;28755;51.478;5.702;2023-04-06T08:59:26;29.33;;;13.88;;
43150;SDS011;28755;51.478;5.702;2023-04-06T09:01:51;24.58;;;14.25;;
43150;SDS011;28755;51.478;5.702;2023-04-06T09:04:19;24.85;;;14.65;;
43150;SDS011;28755;51.478;5.702;2023-04-06T09:06:45;23.70;;;14.30;;
43150;SDS011;28755;51.478;5.702;2023-04-06T09:09:10;32.00;;;15.05;;
43150;SDS011;28755;51.478;5.702;2023-04-06T09:11:49;22.60;;;14.48;;
43150;SDS011;28755;51.478;5.702;2023-04-06T09:14:15;25.63;;;15.07;;
43150;SDS011;28755;51.478;5.702;2023-04-06T09:16:42;26.42;;;14.60;;
43150;SDS011;28755;51.478;5.702;2023-04-06T09:19:10;24.85;;;14.05;;
43150;SDS011;28755;51.478;5.702;2023-04-06T09:21:36;26.17;;;14.70;;
43150;SDS011;28755;51.478;5.702;2023-04-06T09:24:03;22.00;;;13.68;;
43150;SDS011;28755;51.478;5.702;2023-04-06T09:26:29;24.02;;;14.02;;
43150;SDS011;28755;51.478;5.702;2023-04-06T09:28:58;27.38;;;14.80;;
43150;SDS011;28755;51.478;5.702;2023-04-06T09:31:30;21.85;;;13.70;;
43150;SDS011;28755;51.478;5.702;2023-04-06T09:33:58;22.08;;;13.70;;
43150;SDS011;28755;51.478;5.702;2023-04-06T09:36:31;22.52;;;13.73;;
43150;SDS011;28755;51.478;5.702;2023-04-06T09:38:58;22.13;;;14.00;;
43150;SDS011;28755;51.478;5.702;2023-04-06T09:41:26;23.23;;;14.02;;
43150;SDS011;28755;51.478;5.702;2023-04-06T09:44:06;23.27;;;14.02;;
43150;SDS011;28755;51.478;5.702;2023-04-06T09:46:34;23.73;;;14.18;;
43150;SDS011;28755;51.478;5.702;2023-04-06T09:49:03;23.35;;;13.85;;
43150;SDS011;28755;51.478;5.702;2023-04-06T09:51:31;24.35;;;14.77;;
43150;SDS011;28755;51.478;5.702;2023-04-06T09:54:08;24.70;;;14.18;;
43150;SDS011;28755;51.478;5.702;2023-04-06T09:56:37;20.20;;;12.63;;
43150;SDS011;28755;51.478;5.702;2023-04-06T09:59:12;23.55;;;13.20;;
43150;SDS011;28755;51.478;5.702;2023-04-06T10:01:39;24.98;;;12.50;;
43150;SDS011;28755;51.478;5.702;2023-04-06T10:06:55;19.55;;;10.65;;
43150;SDS011;28755;51.478;5.702;2023-04-06T10:09:24;22.70;;;10.18;;
43150;SDS011;28755;51.478;5.702;2023-04-06T10:11:50;19.30;;;10.77;;
43150;SDS011;28755;51.478;5.702;2023-04-06T10:14:16;19.10;;;10.80;;
43150;SDS011;28755;51.478;5.702;2023-04-06T10:16:42;18.50;;;11.05;;
43150;SDS011;28755;51.478;5.702;2023-04-06T10:19:13;19.17;;;10.90;;
43150;SDS011;28755;51.478;5.702;2023-04-06T10:21:48;18.40;;;10.70;;
43150;SDS011;28755;51.478;5.702;2023-04-06T10:24:18;19.65;;;10.63;;
43150;SDS011;28755;51.478;5.702;2023-04-06T10:26:43;18.98;;;10.68;;
43150;SDS011;28755;51.478;5.702;2023-04-06T10:29:26;19.48;;;11.00;;
43150;SDS011;28755;51.478;5.702;2023-04-06T10:31:52;17.58;;;10.13;;
43150;SDS011;28755;51.478;5.702;2023-04-06T10:34:20;20.52;;;10.75;;
43150;SDS011;28755;51.478;5.702;2023-04-06T10:36:45;18.38;;;9.75;;
43150;SDS011;28755;51.478;5.702;2023-04-06T10:39:11;18.25;;;10.27;;
43150;SDS011;28755;51.478;5.702;2023-04-06T10:41:44;15.93;;;10.13;;
43150;SDS011;28755;51.478;5.702;2023-04-06T10:44:22;14.75;;;8.57;;
43150;SDS011;28755;51.478;5.702;2023-04-06T10:46:53;13.73;;;8.23;;
43150;SDS011;28755;51.478;5.702;2023-04-06T10:49:25;12.35;;;8.20;;
43150;SDS011;28755;51.478;5.702;2023-04-06T10:51:54;15.13;;;9.18;;
43150;SDS011;28755;51.478;5.702;2023-04-06T10:54:21;15.60;;;8.90;;
43150;SDS011;28755;51.478;5.702;2023-04-06T10:56:48;14.10;;;8.30;;
43150;SDS011;28755;51.478;5.702;2023-04-06T10:59:18;13.43;;;8.75;;
43150;SDS011;28755;51.478;5.702;2023-04-06T11:01:46;16.13;;;8.02;;
43150;SDS011;28755;51.478;5.702;2023-04-06T11:04:15;10.88;;;6.95;;
43150;SDS011;28755;51.478;5.702;2023-04-06T11:06:45;13.77;;;7.35;;
43150;SDS011;28755;51.478;5.702;2023-04-06T11:09:26;14.52;;;8.35;;
43150;SDS011;28755;51.478;5.702;2023-04-06T11:11:52;12.70;;;6.95;;
43150;SDS011;28755;51.478;5.702;2023-04-06T11:14:18;10.40;;;6.97;;
43150;SDS011;28755;51.478;5.702;2023-04-06T11:16:45;10.98;;;7.30;;
43150;SDS011;28755;51.478;5.702;2023-04-06T11:19:13;14.45;;;7.88;;
43150;SDS011;28755;51.478;5.702;2023-04-06T11:21:43;13.15;;;6.70;;
43150;SDS011;28755;51.478;5.702;2023-04-06T11:24:16;10.35;;;6.50;;
43150;SDS011;28755;51.478;5.702;2023-04-06T11:26:46;12.75;;;6.90;;
43150;SDS011;28755;51.478;5.702;2023-04-06T11:29:20;12.30;;;7.20;;
43150;SDS011;28755;51.478;5.702;2023-04-06T11:31:51;13.10;;;6.72;;
43150;SDS011;28755;51.478;5.702;2023-04-06T11:34:22;8.82;;;4.85;;
43150;SDS011;28755;51.478;5.702;2023-04-06T11:36:48;6.03;;;4.30;;
43150;SDS011;28755;51.478;5.702;2023-04-06T11:39:20;7.25;;;4.40;;
43150;SDS011;28755;51.478;5.702;2023-04-06T11:41:47;5.78;;;4.28;;
43150;SDS011;28755;51.478;5.702;2023-04-06T11:46:58;7.97;;;4.60;;
43150;SDS011;28755;51.478;5.702;2023-04-06T11:49:29;6.88;;;4.63;;
43150;SDS011;28755;51.478;5.702;2023-04-06T11:51:55;10.50;;;5.63;;
43150;SDS011;28755;51.478;5.702;2023-04-06T11:54:35;11.27;;;5.85;;
43150;SDS011;28755;51.478;5.702;2023-04-06T11:57:02;10.63;;;5.68;;
43150;SDS011;28755;51.478;5.702;2023-04-06T11:59:29;11.88;;;6.25;;
43150;SDS011;28755;51.478;5.702;2023-04-06T12:01:56;10.25;;;5.70;;
43150;SDS011;28755;51.478;5.702;2023-04-06T12:04:22;8.98;;;5.75;;
43150;SDS011;28755;51.478;5.702;2023-04-06T12:06:48;11.68;;;6.65;;
43150;SDS011;28755;51.478;5.702;2023-04-06T12:09:13;10.15;;;6.10;;
43150;SDS011;28755;51.478;5.702;2023-04-06T12:11:39;11.38;;;6.53;;
43150;SDS011;28755;51.478;5.702;2023-04-06T12:14:05;9.98;;;6.28;;
43150;SDS011;28755;51.478;5.702;2023-04-06T12:16:32;10.73;;;6.10;;
43150;SDS011;28755;51.478;5.702;2023-04-06T12:18:59;10.75;;;6.25;;
43150;SDS011;28755;51.478;5.702;2023-04-06T12:21:25;11.70;;;6.65;;
43150;SDS011;28755;51.478;5.702;2023-04-06T12:23:53;11.43;;;7.22;;
43150;SDS011;28755;51.478;5.702;2023-04-06T12:26:18;12.82;;;7.10;;
43150;SDS011;28755;51.478;5.702;2023-04-06T12:28:44;12.85;;;7.70;;
43150;SDS011;28755;51.478;5.702;2023-04-06T12:31:20;12.88;;;7.57;;
43150;SDS011;28755;51.478;5.702;2023-04-06T12:33:47;11.65;;;7.10;;
43150;SDS011;28755;51.478;5.702;2023-04-06T12:36:14;11.48;;;6.40;;
43150;SDS011;28755;51.478;5.702;2023-04-06T12:38:43;15.73;;;8.10;;
43150;SDS011;28755;51.478;5.702;2023-04-06T12:41:10;12.00;;;7.72;;
43150;SDS011;28755;51.478;5.702;2023-04-06T12:43:36;14.60;;;7.68;;
43150;SDS011;28755;51.478;5.702;2023-04-06T12:46:02;12.85;;;7.00;;
43150;SDS011;28755;51.478;5.702;2023-04-06T12:48:27;13.48;;;7.93;;
43150;SDS011;28755;51.478;5.702;2023-04-06T12:50:54;14.77;;;7.90;;
43150;SDS011;28755;51.478;5.702;2023-04-06T12:53:20;15.32;;;8.48;;
43150;SDS011;28755;51.478;5.702;2023-04-06T12:55:46;13.93;;;8.68;;
43150;SDS011;28755;51.478;5.702;2023-04-06T12:58:11;12.88;;;8.23;;
43150;SDS011;28755;51.478;5.702;2023-04-06T13:00:37;14.45;;;9.18;;
43150;SDS011;28755;51.478;5.702;2023-04-06T13:03:02;14.73;;;8.50;;
43150;SDS011;28755;51.478;5.702;2023-04-06T13:05:28;13.73;;;9.05;;
43150;SDS011;28755;51.478;5.702;2023-04-06T13:07:53;15.73;;;9.25;;
43150;SDS011;28755;51.478;5.702;2023-04-06T13:10:19;16.52;;;9.63;;
43150;SDS011;28755;51.478;5.702;2023-04-06T13:12:45;14.77;;;9.02;;
43150;SDS011;28755;51.478;5.702;2023-04-06T13:15:10;15.35;;;8.07;;
43150;SDS011;28755;51.478;5.702;2023-04-06T13:17:36;15.15;;;9.63;;
43150;SDS011;28755;51.478;5.702;2023-04-06T13:20:02;13.60;;;8.75;;
43150;SDS011;28755;51.478;5.702;2023-04-06T13:22:28;14.05;;;9.23;;
43150;SDS011;28755;51.478;5.702;2023-04-06T13:24:54;16.25;;;9.35;;
43150;SDS011;28755;51.478;5.702;2023-04-06T13:27:19;14.10;;;8.82;;
43150;SDS011;28755;51.478;5.702;2023-04-06T13:29:45;18.88;;;10.27;;
43150;SDS011;28755;51.478;5.702;2023-04-06T13:32:11;14.73;;;9.52;;
43150;SDS011;28755;51.478;5.702;2023-04-06T13:34:37;12.88;;;8.05;;
43150;SDS011;28755;51.478;5.702;2023-04-06T13:37:02;15.32;;;9.23;;
43150;SDS011;28755;51.478;5.702;2023-04-06T13:39:28;12.73;;;8.65;;
43150;SDS011;28755;51.478;5.702;2023-04-06T13:41:53;16.67;;;10.05;;
43150;SDS011;28755;51.478;5.702;2023-04-06T13:44:21;14.23;;;9.68;;
43150;SDS011;28755;51.478;5.702;2023-04-06T13:46:46;15.02;;;8.88;;
43150;SDS011;28755;51.478;5.702;2023-04-06T13:49:12;12.68;;;9.13;;
43150;SDS011;28755;51.478;5.702;2023-04-06T13:51:38;13.30;;;9.32;;
43150;SDS011;28755;51.478;5.702;2023-04-06T13:54:05;13.20;;;8.50;;
43150;SDS011;28755;51.478;5.702;2023-04-06T13:56:31;16.77;;;9.48;;
43150;SDS011;28755;51.478;5.702;2023-04-06T13:58:56;12.77;;;8.27;;
43150;SDS011;28755;51.478;5.702;2023-04-06T14:01:22;17.20;;;9.18;;
43150;SDS011;28755;51.478;5.702;2023-04-06T14:03:48;18.25;;;9.35;;
43150;SDS011;28755;51.478;5.702;2023-04-06T14:06:14;14.60;;;9.20;;
43150;SDS011;28755;51.478;5.702;2023-04-06T14:08:40;15.68;;;10.30;;
43150;SDS011;28755;51.478;5.702;2023-04-06T14:11:06;15.55;;;9.60;;
43150;SDS011;28755;51.478;5.702;2023-04-06T14:13:36;15.55;;;9.93;;
43150;SDS011;28755;51.478;5.702;2023-04-06T14:16:02;20.10;;;10.95;;
43150;SDS011;28755;51.478;5.702;2023-04-06T14:18:28;16.83;;;10.05;;
43150;SDS011;28755;51.478;5.702;2023-04-06T14:20:56;17.48;;;10.43;;
43150;SDS011;28755;51.478;5.702;2023-04-06T14:23:22;19.27;;;11.15;;
43150;SDS011;28755;51.478;5.702;2023-04-06T14:25:50;15.77;;;9.45;;
43150;SDS011;28755;51.478;5.702;2023-04-06T14:28:16;13.93;;;10.00;;